Time;durP1;ratioP1;P1;durP2;ratioP2;P2;SDS_P1;SDS_P2;PMS_P1;PMS_P2;Temp;Humidity;BMP_temperature;BMP_pressure;BME280_temperature;BME280_humidity;BME280_pressure;Samples;Min_cycle;Max_cycle;Signal;HPM_P1;HPM_P2
2023/04/16 00:01:51;;;;;;;3.05;1.77;;;;;;;;;;5019813;28;20037;-78
2023/04/16 00:04:17;;;;;;;2.50;1.85;;;;;;;;;;5025033;28;20056;-79
2023/04/16 00:06:43;;;;;;;2.72;2.03;;;;;;;;;;5026459;28;20562;-78
2023/04/16 00:09:09;;;;;;;2.08;1.75;;;;;;;;;;5028338;28;20061;-78
2023/04/16 00:11:35;;;;;;;3.88;2.30;;;;;;;;;;5024150;28;20084;-78
2023/04/16 00:14:01;;;;;;;4.10;2.05;;;;;;;;;;5028530;28;20033;-78
2023/04/16 00:16:27;;;;;;;3.03;2.05;;;;;;;;;;5020934;28;20038;-79
2023/04/16 00:18:53;;;;;;;3.53;2.20;;;;;;;;;;5011714;28;20030;-79
2023/04/16 00:21:19;;;;;;;3.00;2.10;;;;;;;;;;5025472;28;20091;-79
2023/04/16 00:23:45;;;;;;;2.42;1.80;;;;;;;;;;5027759;28;20032;-78
2023/04/16 00:26:11;;;;;;;2.83;1.85;;;;;;;;;;5011590;28;20117;-78
2023/04/16 00:28:37;;;;;;;2.60;1.80;;;;;;;;;;5014331;28;20209;-78
2023/04/16 00:31:03;;;;;;;5.65;3.28;;;;;;;;;;5024535;28;20070;-78
2023/04/16 00:33:29;;;;;;;4.40;2.13;;;;;;;;;;5019207;28;20590;-78
2023/04/16 00:35:55;;;;;;;4.88;2.42;;;;;;;;;;5028992;28;20400;-78
2023/04/16 00:38:21;;;;;;;4.13;2.03;;;;;;;;;;5015433;28;20577;-78
2023/04/16 00:40:47;;;;;;;2.97;2.00;;;;;;;;;;5027894;28;20087;-79
2023/04/16 00:43:20;;;;;;;2.67;1.90;;;;;;;;;;5015221;28;20767;-78
2023/04/16 00:45:46;;;;;;;2.20;2.00;;;;;;;;;;5028826;28;20041;-78
2023/04/16 00:48:12;;;;;;;3.17;1.98;;;;;;;;;;5029646;28;20088;-78
2023/04/16 00:50:38;;;;;;;2.67;1.70;;;;;;;;;;5020602;28;20029;-76
2023/04/16 00:53:04;;;;;;;4.05;2.08;;;;;;;;;;5014171;28;20745;-76
2023/04/16 00:55:30;;;;;;;4.15;2.20;;;;;;;;;;5020501;28;20040;-76
2023/04/16 00:57:56;;;;;;;2.90;2.22;;;;;;;;;;5014057;28;20053;-76
2023/04/16 01:00:22;;;;;;;2.38;2.08;;;;;;;;;;5009978;28;20657;-76
2023/04/16 01:02:48;;;;;;;3.67;2.10;;;;;;;;;;5025565;28;20029;-76
2023/04/16 01:05:14;;;;;;;3.08;2.08;;;;;;;;;;5027985;28;20029;-77
2023/04/16 01:07:40;;;;;;;3.63;2.00;;;;;;;;;;5029531;28;20021;-77
2023/04/16 01:10:07;;;;;;;2.38;1.90;;;;;;;;;;5021596;28;20029;-76
2023/04/16 01:12:32;;;;;;;2.42;1.70;;;;;;;;;;5027366;28;20028;-77
2023/04/16 01:14:59;;;;;;;3.90;2.10;;;;;;;;;;5027689;28;20045;-76
2023/04/16 01:17:25;;;;;;;3.90;1.98;;;;;;;;;;5025434;28;20041;-76
2023/04/16 01:19:51;;;;;;;2.70;1.90;;;;;;;;;;5009416;28;20025;-76
2023/04/16 01:22:17;;;;;;;4.10;2.55;;;;;;;;;;5012395;28;20029;-76
2023/04/16 01:24:43;;;;;;;2.70;1.95;;;;;;;;;;5016310;28;20366;-76
2023/04/16 01:27:09;;;;;;;3.88;2.05;;;;;;;;;;5013923;28;20021;-76
2023/04/16 01:29:35;;;;;;;3.47;2.25;;;;;;;;;;5009359;28;20033;-76
2023/04/16 01:32:01;;;;;;;2.95;1.90;;;;;;;;;;5019946;28;20033;-77
2023/04/16 01:34:27;;;;;;;2.92;2.05;;;;;;;;;;5011081;28;20038;-76
2023/04/16 01:36:53;;;;;;;3.40;1.85;;;;;;;;;;5028283;28;20025;-76
2023/04/16 01:39:19;;;;;;;3.30;2.30;;;;;;;;;;5027658;28;20025;-76
2023/04/16 01:41:45;;;;;;;3.03;1.75;;;;;;;;;;5018868;28;20041;-77
2023/04/16 01:44:11;;;;;;;3.78;2.10;;;;;;;;;;5018703;28;20033;-77
2023/04/16 01:46:37;;;;;;;4.78;1.70;;;;;;;;;;5024461;28;20049;-76
2023/04/16 01:49:05;;;;;;;2.28;2.08;;;;;;;;;;5017621;28;20226;-76
2023/04/16 01:51:32;;;;;;;6.30;1.88;;;;;;;;;;5012253;28;20036;-76
2023/04/16 01:53:58;;;;;;;2.70;2.03;;;;;;;;;;5018245;28;20463;-76
2023/04/16 01:56:25;;;;;;;2.88;2.05;;;;;;;;;;5017805;28;20125;-76
2023/04/16 01:58:51;;;;;;;4.20;1.88;;;;;;;;;;5017929;28;20049;-78
2023/04/16 02:01:17;;;;;;;3.35;2.10;;;;;;;;;;5018218;28;20030;-76
2023/04/16 02:03:43;;;;;;;3.67;1.67;;;;;;;;;;5016062;28;20064;-76
2023/04/16 02:06:09;;;;;;;5.30;2.25;;;;;;;;;;5025798;28;20030;-76
2023/04/16 02:08:35;;;;;;;2.72;1.88;;;;;;;;;;5026758;28;20033;-76
2023/04/16 02:11:01;;;;;;;3.30;1.90;;;;;;;;;;5020368;28;20416;-76
2023/04/16 02:13:27;;;;;;;2.65;2.03;;;;;;;;;;5016976;28;20086;-76
2023/04/16 02:15:53;;;;;;;3.83;1.98;;;;;;;;;;5009210;28;20026;-76
2023/04/16 02:18:19;;;;;;;4.95;2.17;;;;;;;;;;5022745;28;20064;-76
2023/04/16 02:20:45;;;;;;;4.57;1.95;;;;;;;;;;5011422;28;20398;-77
2023/04/16 02:23:13;;;;;;;5.38;1.88;;;;;;;;;;5017959;28;20112;-76
2023/04/16 02:25:43;;;;;;;2.13;1.85;;;;;;;;;;5023475;28;20033;-77
2023/04/16 02:28:10;;;;;;;4.55;2.10;;;;;;;;;;5016564;28;20025;-76
2023/04/16 02:30:36;;;;;;;2.95;1.85;;;;;;;;;;5018110;28;20045;-76
2023/04/16 02:33:04;;;;;;;2.13;1.80;;;;;;;;;;5009198;28;20038;-76
2023/04/16 02:35:31;;;;;;;3.80;2.28;;;;;;;;;;5024046;28;20088;-76
2023/04/16 02:37:57;;;;;;;3.63;2.47;;;;;;;;;;5028199;28;20268;-76
2023/04/16 02:40:23;;;;;;;2.78;1.80;;;;;;;;;;5020874;28;20278;-76
2023/04/16 02:42:49;;;;;;;2.92;2.10;;;;;;;;;;5019064;28;20033;-76
2023/04/16 02:45:15;;;;;;;2.10;1.85;;;;;;;;;;5014834;28;20059;-76
2023/04/16 02:47:41;;;;;;;3.45;1.92;;;;;;;;;;5025117;28;20495;-76
2023/04/16 02:50:07;;;;;;;2.40;1.63;;;;;;;;;;5012676;28;20030;-76
2023/04/16 02:52:33;;;;;;;3.22;2.10;;;;;;;;;;5014025;28;20492;-78
2023/04/16 02:54:59;;;;;;;2.35;1.70;;;;;;;;;;5013228;28;20033;-76
2023/04/16 02:57:25;;;;;;;2.13;1.75;;;;;;;;;;5026601;28;20818;-76
2023/04/16 02:59:51;;;;;;;2.97;2.13;;;;;;;;;;5016540;28;20030;-76
2023/04/16 03:02:17;;;;;;;2.65;2.00;;;;;;;;;;5015567;28;20034;-76
2023/04/16 03:04:43;;;;;;;3.00;2.00;;;;;;;;;;5011602;28;20034;-76
2023/04/16 03:07:11;;;;;;;3.08;1.95;;;;;;;;;;5008171;28;20033;-76
2023/04/16 03:09:37;;;;;;;3.33;2.10;;;;;;;;;;5014933;28;20108;-76
2023/04/16 03:12:03;;;;;;;2.50;2.15;;;;;;;;;;5025621;28;20060;-77
2023/04/16 03:14:29;;;;;;;2.83;1.95;;;;;;;;;;5024793;28;20021;-76
2023/04/16 03:16:55;;;;;;;3.72;1.77;;;;;;;;;;5019155;28;20069;-76
2023/04/16 03:19:21;;;;;;;2.80;1.70;;;;;;;;;;5026285;28;20029;-76
2023/04/16 03:21:47;;;;;;;2.10;1.67;;;;;;;;;;5030532;28;20030;-76
2023/04/16 03:24:13;;;;;;;3.53;1.80;;;;;;;;;;5022812;28;20022;-76
2023/04/16 03:26:39;;;;;;;2.47;1.90;;;;;;;;;;5027410;28;20032;-78
2023/04/16 03:29:05;;;;;;;3.88;2.20;;;;;;;;;;5030535;28;20400;-77
2023/04/16 03:31:31;;;;;;;3.55;2.13;;;;;;;;;;5023689;28;20033;-77
2023/04/16 03:33:57;;;;;;;2.92;2.00;;;;;;;;;;5029203;28;20033;-77
2023/04/16 03:36:24;;;;;;;3.08;2.50;;;;;;;;;;5031322;28;20052;-77
2023/04/16 03:38:50;;;;;;;2.92;1.67;;;;;;;;;;5027764;28;20030;-77
2023/04/16 03:41:16;;;;;;;3.60;1.98;;;;;;;;;;5022039;28;20037;-77
2023/04/16 03:43:41;;;;;;;2.20;1.70;;;;;;;;;;5030372;28;20032;-77
2023/04/16 03:46:07;;;;;;;2.10;1.77;;;;;;;;;;5019485;28;20078;-77
2023/04/16 03:48:33;;;;;;;3.08;2.45;;;;;;;;;;5011860;28;20037;-77
2023/04/16 03:50:59;;;;;;;3.63;2.05;;;;;;;;;;5029077;28;20034;-77
2023/04/16 03:53:26;;;;;;;3.00;1.70;;;;;;;;;;5031099;28;20491;-77
2023/04/16 03:55:52;;;;;;;1.92;1.48;;;;;;;;;;5018604;28;20489;-77
2023/04/16 03:58:18;;;;;;;2.95;1.67;;;;;;;;;;5021124;28;20037;-77
2023/04/16 04:00:44;;;;;;;3.45;2.30;;;;;;;;;;5029612;28;20065;-77
2023/04/16 04:03:10;;;;;;;5.00;2.10;;;;;;;;;;5025486;28;20583;-77
2023/04/16 04:05:37;;;;;;;4.10;2.10;;;;;;;;;;5029313;28;20026;-77
2023/04/16 04:08:03;;;;;;;2.92;1.70;;;;;;;;;;5030408;28;20100;-77
2023/04/16 04:10:31;;;;;;;2.85;1.95;;;;;;;;;;5027077;28;20112;-77
2023/04/16 04:12:57;;;;;;;2.47;1.85;;;;;;;;;;5020857;28;20035;-77
2023/04/16 04:15:23;;;;;;;3.35;2.22;;;;;;;;;;5029478;28;20022;-77
2023/04/16 04:17:49;;;;;;;3.00;1.65;;;;;;;;;;5016176;28;20133;-77
2023/04/16 04:20:15;;;;;;;2.05;1.55;;;;;;;;;;5019588;28;20468;-76
2023/04/16 04:22:41;;;;;;;3.08;2.08;;;;;;;;;;5011856;28;20038;-77
2023/04/16 04:25:08;;;;;;;3.95;2.28;;;;;;;;;;5017420;28;20488;-78
2023/04/16 04:27:34;;;;;;;3.03;2.00;;;;;;;;;;5015230;28;20025;-77
2023/04/16 04:30:00;;;;;;;4.00;2.00;;;;;;;;;;5028669;28;20675;-77
2023/04/16 04:32:26;;;;;;;5.07;1.80;;;;;;;;;;5029362;28;20037;-77
2023/04/16 04:34:52;;;;;;;2.22;1.83;;;;;;;;;;5024454;28;20467;-77
2023/04/16 04:37:18;;;;;;;3.15;1.98;;;;;;;;;;5028985;28;20624;-76
2023/04/16 04:39:44;;;;;;;3.13;1.65;;;;;;;;;;5029448;28;20033;-76
2023/04/16 04:42:09;;;;;;;4.60;1.88;;;;;;;;;;5016008;28;20037;-77
2023/04/16 04:44:35;;;;;;;3.05;1.90;;;;;;;;;;5022316;28;20492;-77
2023/04/16 04:47:01;;;;;;;4.53;2.17;;;;;;;;;;5028934;28;20542;-77
2023/04/16 04:49:27;;;;;;;4.90;2.30;;;;;;;;;;5015625;28;20450;-77
2023/04/16 04:51:53;;;;;;;2.55;1.90;;;;;;;;;;5014741;28;20033;-77
2023/04/16 04:54:19;;;;;;;3.00;1.83;;;;;;;;;;5023958;28;20036;-77
2023/04/16 04:56:46;;;;;;;2.92;2.20;;;;;;;;;;5010348;28;20026;-77
2023/04/16 04:59:12;;;;;;;5.07;1.95;;;;;;;;;;5023181;28;20083;-76
2023/04/16 05:01:38;;;;;;;3.17;1.85;;;;;;;;;;5028602;28;20033;-76
2023/04/16 05:04:04;;;;;;;3.10;1.88;;;;;;;;;;5025637;28;20373;-76
2023/04/16 05:06:30;;;;;;;2.90;1.92;;;;;;;;;;5024686;28;20036;-76
2023/04/16 05:08:56;;;;;;;2.60;2.05;;;;;;;;;;5028274;28;20755;-77
2023/04/16 05:11:22;;;;;;;2.88;1.90;;;;;;;;;;5016068;28;20038;-77
2023/04/16 05:13:48;;;;;;;3.60;2.30;;;;;;;;;;5014558;28;20134;-76
2023/04/16 05:16:14;;;;;;;2.70;1.90;;;;;;;;;;5018356;28;20108;-76
2023/04/16 05:18:40;;;;;;;3.30;1.75;;;;;;;;;;5009485;28;20022;-76
2023/04/16 05:21:06;;;;;;;2.95;1.67;;;;;;;;;;5017356;28;20125;-76
2023/04/16 05:23:32;;;;;;;3.58;2.20;;;;;;;;;;5009546;28;20022;-77
2023/04/16 05:25:58;;;;;;;5.13;2.33;;;;;;;;;;5016764;28;20524;-77
2023/04/16 05:28:24;;;;;;;3.10;1.90;;;;;;;;;;5009395;28;20128;-77
2023/04/16 05:30:50;;;;;;;4.30;2.03;;;;;;;;;;5020987;28;20029;-77
2023/04/16 05:33:16;;;;;;;2.97;1.85;;;;;;;;;;5014785;28;20038;-77
2023/04/16 05:35:42;;;;;;;2.58;2.00;;;;;;;;;;5017621;28;20029;-77
2023/04/16 05:38:09;;;;;;;2.28;1.92;;;;;;;;;;5016135;28;20022;-77
2023/04/16 05:40:35;;;;;;;3.33;2.25;;;;;;;;;;5010473;28;20037;-77
2023/04/16 05:43:01;;;;;;;2.10;1.63;;;;;;;;;;5022534;28;20022;-78
2023/04/16 05:45:26;;;;;;;3.05;1.55;;;;;;;;;;5009192;28;20018;-77
2023/04/16 05:47:52;;;;;;;2.95;1.83;;;;;;;;;;5015828;28;20029;-77
2023/04/16 05:50:18;;;;;;;4.10;1.70;;;;;;;;;;5021733;28;20033;-76
2023/04/16 05:52:45;;;;;;;3.20;1.67;;;;;;;;;;5016866;28;20033;-76
2023/04/16 05:55:11;;;;;;;2.63;1.75;;;;;;;;;;5020587;28;20029;-76
2023/04/16 05:57:36;;;;;;;3.40;2.10;;;;;;;;;;5028605;28;20028;-76
2023/04/16 06:00:03;;;;;;;2.75;1.73;;;;;;;;;;5017338;28;20516;-77
2023/04/16 06:02:30;;;;;;;2.67;1.90;;;;;;;;;;5014911;28;20087;-76
2023/04/16 06:04:56;;;;;;;4.43;2.15;;;;;;;;;;5017361;28;20034;-78
2023/04/16 06:07:22;;;;;;;3.53;1.80;;;;;;;;;;5015630;28;20029;-73
2023/04/16 06:09:48;;;;;;;2.15;1.60;;;;;;;;;;5014638;28;20041;-76
2023/04/16 06:12:14;;;;;;;2.58;1.88;;;;;;;;;;5012742;28;20076;-77
2023/04/16 06:14:40;;;;;;;2.25;1.67;;;;;;;;;;5010717;28;20053;-77
2023/04/16 06:17:06;;;;;;;3.50;2.13;;;;;;;;;;5020135;28;20052;-77
2023/04/16 06:19:32;;;;;;;4.05;1.90;;;;;;;;;;5015984;28;20025;-77
2023/04/16 06:21:58;;;;;;;4.45;1.88;;;;;;;;;;5029639;28;20095;-77
2023/04/16 06:24:24;;;;;;;3.00;2.10;;;;;;;;;;5030541;28;20028;-77
2023/04/16 06:26:50;;;;;;;6.90;2.03;;;;;;;;;;5013976;28;20033;-77
2023/04/16 06:29:16;;;;;;;3.38;1.75;;;;;;;;;;5026038;28;20392;-77
2023/04/16 06:31:42;;;;;;;3.30;1.52;;;;;;;;;;5018822;28;20566;-76
2023/04/16 06:34:07;;;;;;;5.65;2.83;;;;;;;;;;5016198;28;20083;-76
2023/04/16 06:36:34;;;;;;;4.57;1.90;;;;;;;;;;5026079;28;20030;-76
2023/04/16 06:39:00;;;;;;;3.97;2.00;;;;;;;;;;5020885;28;20041;-76
2023/04/16 06:41:26;;;;;;;4.43;2.38;;;;;;;;;;5017648;28;20033;-76
2023/04/16 06:43:52;;;;;;;3.35;2.05;;;;;;;;;;5010503;28;20768;-76
2023/04/16 06:46:17;;;;;;;3.60;2.53;;;;;;;;;;5016121;28;20052;-75
2023/04/16 06:48:43;;;;;;;3.03;2.00;;;;;;;;;;5024515;28;20030;-76
2023/04/16 06:51:10;;;;;;;5.38;2.03;;;;;;;;;;5021389;28;20051;-76
2023/04/16 06:53:36;;;;;;;5.57;2.25;;;;;;;;;;5024739;28;20033;-76
2023/04/16 06:56:02;;;;;;;2.95;2.20;;;;;;;;;;5025209;28;20033;-76
2023/04/16 06:58:28;;;;;;;3.90;2.47;;;;;;;;;;5024100;28;20048;-76
2023/04/16 07:00:54;;;;;;;5.03;2.35;;;;;;;;;;5024956;28;20444;-76
2023/04/16 07:03:20;;;;;;;4.93;2.65;;;;;;;;;;5024073;28;20084;-75
2023/04/16 07:05:46;;;;;;;4.85;2.22;;;;;;;;;;5025894;28;20032;-77
2023/04/16 07:08:12;;;;;;;3.88;2.03;;;;;;;;;;5018000;28;20034;-76
2023/04/16 07:10:38;;;;;;;4.07;1.88;;;;;;;;;;5016514;28;20018;-77
2023/04/16 07:13:04;;;;;;;5.28;2.53;;;;;;;;;;5016197;28;20096;-77
2023/04/16 07:15:30;;;;;;;3.15;2.10;;;;;;;;;;5014075;28;20033;-75
2023/04/16 07:17:56;;;;;;;5.95;2.40;;;;;;;;;;5014813;28;20049;-75
2023/04/16 07:20:22;;;;;;;3.42;2.22;;;;;;;;;;5016818;28;20017;-75
2023/04/16 07:22:48;;;;;;;2.20;1.77;;;;;;;;;;5013134;28;20029;-76
2023/04/16 07:25:14;;;;;;;3.20;2.40;;;;;;;;;;5017495;28;20373;-76
2023/04/16 07:27:40;;;;;;;4.45;2.03;;;;;;;;;;5017602;28;20025;-76
2023/04/16 07:30:06;;;;;;;3.20;1.80;;;;;;;;;;5011921;28;20017;-76
2023/04/16 07:32:32;;;;;;;5.32;2.20;;;;;;;;;;5011794;28;20034;-77
2023/04/16 07:34:59;;;;;;;4.82;2.78;;;;;;;;;;5016388;28;20084;-77
2023/04/16 07:37:25;;;;;;;4.25;2.22;;;;;;;;;;5016500;28;20067;-77
2023/04/16 07:39:51;;;;;;;3.05;2.00;;;;;;;;;;5015174;28;20628;-77
2023/04/16 07:42:17;;;;;;;2.35;1.80;;;;;;;;;;5013190;28;20055;-76
2023/04/16 07:44:43;;;;;;;5.68;2.40;;;;;;;;;;5020877;28;20465;-78
2023/04/16 07:47:09;;;;;;;3.38;2.35;;;;;;;;;;5015118;28;20032;-76
2023/04/16 07:49:35;;;;;;;3.05;2.10;;;;;;;;;;5013665;28;20037;-75
2023/04/16 07:52:01;;;;;;;6.63;2.47;;;;;;;;;;5012992;28;20045;-76
2023/04/16 07:54:27;;;;;;;5.85;2.30;;;;;;;;;;5017307;28;20029;-76
2023/04/16 07:56:53;;;;;;;6.65;2.40;;;;;;;;;;5008392;28;20029;-77
2023/04/16 07:59:19;;;;;;;3.15;2.00;;;;;;;;;;5011829;28;20033;-77
2023/04/16 08:01:45;;;;;;;5.32;2.40;;;;;;;;;;5017144;28;20029;-77
2023/04/16 08:04:11;;;;;;;5.15;2.40;;;;;;;;;;5019505;28;20185;-76
2023/04/16 08:06:37;;;;;;;4.32;2.17;;;;;;;;;;5020025;28;20037;-76
2023/04/16 08:09:03;;;;;;;3.95;2.03;;;;;;;;;;5016004;28;20095;-76
2023/04/16 08:11:29;;;;;;;4.35;2.30;;;;;;;;;;5012336;28;20025;-75
2023/04/16 08:13:55;;;;;;;5.32;2.03;;;;;;;;;;5012393;28;20216;-75
2023/04/16 08:16:21;;;;;;;4.15;2.33;;;;;;;;;;5012147;28;20046;-76
2023/04/16 08:18:47;;;;;;;3.95;2.38;;;;;;;;;;5015804;28;20065;-78
2023/04/16 08:21:13;;;;;;;4.43;2.60;;;;;;;;;;5015639;28;20451;-78
2023/04/16 08:23:39;;;;;;;2.80;1.98;;;;;;;;;;5018054;28;20083;-77
2023/04/16 08:26:05;;;;;;;3.95;2.45;;;;;;;;;;5021833;28;20036;-80
2023/04/16 08:28:31;;;;;;;3.38;2.30;;;;;;;;;;5020542;28;20051;-80
2023/04/16 08:30:57;;;;;;;3.55;2.33;;;;;;;;;;5009982;28;20041;-75
2023/04/16 08:33:23;;;;;;;2.60;2.03;;;;;;;;;;5012988;28;20052;-75
2023/04/16 08:35:49;;;;;;;5.95;2.20;;;;;;;;;;5014088;28;20041;-77
2023/04/16 08:38:15;;;;;;;3.88;2.40;;;;;;;;;;5013552;28;20030;-76
2023/04/16 08:40:41;;;;;;;4.90;2.40;;;;;;;;;;5017289;28;20022;-73
2023/04/16 08:43:12;;;;;;;3.72;2.15;;;;;;;;;;5016823;28;20152;-79
2023/04/16 08:45:41;;;;;;;3.10;2.20;;;;;;;;;;5012057;28;20026;-77
2023/04/16 08:48:07;;;;;;;3.63;2.00;;;;;;;;;;5022091;28;20631;-77
2023/04/16 08:50:34;;;;;;;6.40;2.25;;;;;;;;;;5024352;28;20085;-76
2023/04/16 08:53:05;;;;;;;4.57;2.30;;;;;;;;;;5021091;28;20057;-76
2023/04/16 08:55:38;;;;;;;5.82;1.92;;;;;;;;;;5023382;28;20059;-75
2023/04/16 08:58:14;;;;;;;3.08;2.00;;;;;;;;;;5025801;28;20025;-75
2023/04/16 09:00:40;;;;;;;3.53;2.08;;;;;;;;;;5025082;28;20480;-76
2023/04/16 09:03:07;;;;;;;4.10;2.33;;;;;;;;;;5024643;28;20461;-76
2023/04/16 09:05:33;;;;;;;3.42;1.63;;;;;;;;;;5025465;28;20029;-76
2023/04/16 09:07:59;;;;;;;7.30;2.50;;;;;;;;;;5023881;28;20040;-76
2023/04/16 09:10:26;;;;;;;3.72;2.28;;;;;;;;;;5025875;28;20026;-76
2023/04/16 09:12:52;;;;;;;2.60;1.88;;;;;;;;;;5021893;28;20044;-77
2023/04/16 09:15:20;;;;;;;4.88;2.13;;;;;;;;;;5022733;28;20124;-77
2023/04/16 09:17:46;;;;;;;10.65;1.90;;;;;;;;;;5016860;28;20054;-78
2023/04/16 09:20:12;;;;;;;3.70;1.77;;;;;;;;;;5023224;28;20045;-78
2023/04/16 09:22:41;;;;;;;2.00;1.80;;;;;;;;;;5021881;28;20038;-77
2023/04/16 09:25:08;;;;;;;5.90;2.13;;;;;;;;;;5019062;28;20033;-77
2023/04/16 09:27:33;;;;;;;3.60;2.17;;;;;;;;;;5023144;28;20479;-85
2023/04/16 09:30:00;;;;;;;2.67;1.60;;;;;;;;;;5023913;28;20033;-80
2023/04/16 09:32:27;;;;;;;7.32;2.13;;;;;;;;;;5025277;28;20531;-78
2023/04/16 09:35:00;;;;;;;2.63;1.55;;;;;;;;;;5021103;28;20080;-78
2023/04/16 09:37:28;;;;;;;2.58;1.73;;;;;;;;;;5023279;28;20029;-84
2023/04/16 09:39:55;;;;;;;2.70;1.83;;;;;;;;;;5022948;28;20030;-85
2023/04/16 09:42:23;;;;;;;3.45;1.92;;;;;;;;;;5025464;28;20030;-86
2023/04/16 09:44:50;;;;;;;5.60;2.35;;;;;;;;;;5023397;28;20096;-80
2023/04/16 09:47:16;;;;;;;3.28;1.92;;;;;;;;;;5022685;28;20040;-80
2023/04/16 09:49:42;;;;;;;4.97;2.80;;;;;;;;;;5022199;28;20452;-82
2023/04/16 09:52:18;;;;;;;3.25;1.90;;;;;;;;;;5021649;28;20025;-83
2023/04/16 09:54:45;;;;;;;5.78;2.13;;;;;;;;;;5023108;28;20670;-82
2023/04/16 09:57:14;;;;;;;7.47;1.90;;;;;;;;;;5021410;28;20040;-79
2023/04/16 09:59:49;;;;;;;3.75;1.73;;;;;;;;;;5024208;28;20036;-83
2023/04/16 10:02:22;;;;;;;4.05;1.88;;;;;;;;;;5023794;28;20072;-76
2023/04/16 10:04:49;;;;;;;3.63;2.33;;;;;;;;;;5021229;28;20094;-79
2023/04/16 10:07:15;;;;;;;2.83;1.83;;;;;;;;;;5022219;28;20055;-87
2023/04/16 10:09:41;;;;;;;3.33;2.10;;;;;;;;;;5021000;28;20044;-86
2023/04/16 10:12:07;;;;;;;4.72;2.53;;;;;;;;;;5020465;28;20507;-84
2023/04/16 10:14:34;;;;;;;2.65;1.85;;;;;;;;;;5021861;28;20067;-79
2023/04/16 10:17:00;;;;;;;3.28;2.05;;;;;;;;;;5012033;28;20073;-88
2023/04/16 10:19:27;;;;;;;5.32;2.47;;;;;;;;;;5015322;28;20032;-82
2023/04/16 10:21:53;;;;;;;2.30;1.55;;;;;;;;;;5016348;28;20040;-77
2023/04/16 10:24:19;;;;;;;7.35;2.25;;;;;;;;;;5018066;28;20055;-83
2023/04/16 10:26:46;;;;;;;4.07;2.05;;;;;;;;;;5016391;28;20038;-86
2023/04/16 10:29:12;;;;;;;4.57;2.13;;;;;;;;;;5012861;28;20018;-81
2023/04/16 10:31:39;;;;;;;5.00;2.38;;;;;;;;;;5013536;28;20489;-86
2023/04/16 10:34:05;;;;;;;3.47;2.28;;;;;;;;;;5014465;28;20021;-85
2023/04/16 10:36:35;;;;;;;8.38;2.58;;;;;;;;;;5021859;28;20116;-85
2023/04/16 10:39:01;;;;;;;3.85;2.17;;;;;;;;;;5017956;28;20022;-88
2023/04/16 10:41:27;;;;;;;4.53;2.50;;;;;;;;;;5015042;28;20029;-85
2023/04/16 10:44:04;;;;;;;4.28;2.55;;;;;;;;;;5019813;28;20112;-85
2023/04/16 10:46:33;;;;;;;3.35;2.22;;;;;;;;;;5018353;28;20029;-86
2023/04/16 10:49:00;;;;;;;6.85;2.15;;;;;;;;;;5022030;28;20110;-83
2023/04/16 10:51:30;;;;;;;4.78;2.47;;;;;;;;;;5022040;28;20065;-82
2023/04/16 10:54:03;;;;;;;3.88;2.60;;;;;;;;;;5018618;28;20036;-78
2023/04/16 10:56:31;;;;;;;3.72;2.20;;;;;;;;;;5020580;28;20026;-85
2023/04/16 10:58:57;;;;;;;4.90;2.70;;;;;;;;;;5018998;28;20025;-80
2023/04/16 11:01:33;;;;;;;4.00;2.20;;;;;;;;;;5017725;28;20507;-80
2023/04/16 11:04:03;;;;;;;3.50;2.22;;;;;;;;;;5019349;28;20091;-79
2023/04/16 11:06:30;;;;;;;3.45;2.40;;;;;;;;;;5020554;28;20013;-79
2023/04/16 11:08:56;;;;;;;3.22;2.33;;;;;;;;;;5012746;28;20083;-80
2023/04/16 11:11:22;;;;;;;4.72;2.42;;;;;;;;;;5018822;28;20076;-87
2023/04/16 11:13:48;;;;;;;3.92;1.92;;;;;;;;;;5017553;28;20117;-75
2023/04/16 11:16:15;;;;;;;9.20;2.17;;;;;;;;;;5023078;28;20091;-80
2023/04/16 11:18:41;;;;;;;3.95;2.13;;;;;;;;;;5022141;28;20053;-73
2023/04/16 11:21:09;;;;;;;6.35;2.92;;;;;;;;;;5020874;28;20041;-74
2023/04/16 11:23:49;;;;;;;3.15;2.03;;;;;;;;;;5014974;28;20345;-73
2023/04/16 11:26:21;;;;;;;2.50;1.88;;;;;;;;;;5015312;28;20037;-73
2023/04/16 11:28:47;;;;;;;3.08;1.90;;;;;;;;;;5013483;28;20033;-73
2023/04/16 11:31:12;;;;;;;3.53;2.22;;;;;;;;;;5019673;28;20037;-80
2023/04/16 11:33:38;;;;;;;3.67;2.15;;;;;;;;;;5014740;28;20045;-80
2023/04/16 11:36:05;;;;;;;4.80;2.60;;;;;;;;;;5018565;28;20037;-79
2023/04/16 11:38:35;;;;;;;3.60;2.40;;;;;;;;;;5012934;28;20025;-78
2023/04/16 11:41:01;;;;;;;7.75;2.35;;;;;;;;;;5018208;28;20041;-78
2023/04/16 11:43:27;;;;;;;6.32;2.67;;;;;;;;;;5027163;28;20037;-83
2023/04/16 11:45:57;;;;;;;5.15;3.03;;;;;;;;;;5023355;28;20219;-84
2023/04/16 11:48:23;;;;;;;3.58;2.35;;;;;;;;;;5023945;28;20052;-83
2023/04/16 11:50:58;;;;;;;2.80;1.80;;;;;;;;;;5030478;28;20018;-82
2023/04/16 11:53:24;;;;;;;4.03;1.98;;;;;;;;;;5030735;28;20028;-83
2023/04/16 11:55:50;;;;;;;6.45;2.40;;;;;;;;;;5027033;28;20025;-83
2023/04/16 11:58:17;;;;;;;4.22;2.25;;;;;;;;;;5020005;28;20033;-83
2023/04/16 12:00:44;;;;;;;3.83;2.55;;;;;;;;;;5013615;28;20021;-80
2023/04/16 12:03:09;;;;;;;3.85;2.60;;;;;;;;;;5018952;28;20444;-76
2023/04/16 12:05:39;;;;;;;2.00;1.73;;;;;;;;;;5014092;28;20025;-77
2023/04/16 12:08:06;;;;;;;4.40;2.30;;;;;;;;;;5024741;28;20430;-76
2023/04/16 12:10:33;;;;;;;5.13;2.08;;;;;;;;;;5023733;28;20021;-81
2023/04/16 12:13:16;;;;;;;3.20;2.40;;;;;;;;;;5017046;28;20033;-77
2023/04/16 12:15:49;;;;;;;3.38;2.28;;;;;;;;;;5019461;28;20056;-76
2023/04/16 12:18:15;;;;;;;3.42;2.15;;;;;;;;;;5024552;28;20029;-76
2023/04/16 12:20:42;;;;;;;3.92;2.58;;;;;;;;;;5019382;28;20034;-77
2023/04/16 12:23:08;;;;;;;2.63;1.92;;;;;;;;;;5017364;28;20128;-76
2023/04/16 12:25:35;;;;;;;3.92;2.20;;;;;;;;;;5017655;28;20021;-77
2023/04/16 12:28:01;;;;;;;2.83;2.10;;;;;;;;;;5020842;28;20053;-77
2023/04/16 12:30:27;;;;;;;6.63;2.67;;;;;;;;;;5010458;28;20026;-77
2023/04/16 12:33:13;;;;;;;3.75;2.38;;;;;;;;;;5023154;28;20025;-76
2023/04/16 12:35:43;;;;;;;5.13;2.30;;;;;;;;;;5019074;28;20040;-76
2023/04/16 12:38:09;;;;;;;5.13;2.40;;;;;;;;;;5013963;28;20484;-76
2023/04/16 12:40:35;;;;;;;2.90;2.15;;;;;;;;;;5011212;28;20034;-77
2023/04/16 12:43:02;;;;;;;3.95;2.25;;;;;;;;;;5026128;28;20025;-76
2023/04/16 12:45:28;;;;;;;3.28;2.42;;;;;;;;;;5013641;28;20026;-77
2023/04/16 12:47:54;;;;;;;3.72;2.30;;;;;;;;;;5017927;28;20028;-76
2023/04/16 12:50:21;;;;;;;4.60;2.30;;;;;;;;;;5024657;28;20033;-77
2023/04/16 12:52:47;;;;;;;3.20;1.92;;;;;;;;;;5016286;28;20480;-76
2023/04/16 12:55:13;;;;;;;3.33;2.30;;;;;;;;;;5025663;28;20033;-76
2023/04/16 12:57:39;;;;;;;2.13;1.73;;;;;;;;;;5026760;28;20022;-76
2023/04/16 13:00:07;;;;;;;2.80;1.95;;;;;;;;;;5024343;28;20041;-76
2023/04/16 13:02:33;;;;;;;2.47;1.95;;;;;;;;;;5028963;28;20022;-76
2023/04/16 13:04:59;;;;;;;2.40;1.90;;;;;;;;;;5026551;28;20033;-77
2023/04/16 13:07:27;;;;;;;3.65;1.90;;;;;;;;;;5012920;28;20026;-77
2023/04/16 13:09:52;;;;;;;2.42;1.80;;;;;;;;;;5017427;28;20017;-76
2023/04/16 13:12:18;;;;;;;3.75;2.03;;;;;;;;;;5028191;28;20041;-77
2023/04/16 13:14:44;;;;;;;2.17;1.90;;;;;;;;;;5011806;28;20025;-76
2023/04/16 13:17:10;;;;;;;2.58;2.13;;;;;;;;;;5026734;28;20037;-76
2023/04/16 13:19:36;;;;;;;4.65;2.08;;;;;;;;;;5029639;28;20033;-77
2023/04/16 13:22:02;;;;;;;5.07;2.40;;;;;;;;;;5028640;28;20045;-76
2023/04/16 13:24:29;;;;;;;2.42;1.67;;;;;;;;;;5028205;28;20125;-76
2023/04/16 13:26:55;;;;;;;3.28;1.80;;;;;;;;;;5021329;28;20088;-77
2023/04/16 13:29:21;;;;;;;2.80;1.92;;;;;;;;;;5009218;28;20059;-76
2023/04/16 13:31:48;;;;;;;3.88;1.85;;;;;;;;;;5013153;28;20061;-76
2023/04/16 13:34:14;;;;;;;1.80;1.70;;;;;;;;;;5016145;28;20511;-77
2023/04/16 13:36:40;;;;;;;2.83;1.70;;;;;;;;;;5020601;28;20567;-77
2023/04/16 13:39:10;;;;;;;1.80;1.35;;;;;;;;;;5019912;28;20033;-77
2023/04/16 13:41:38;;;;;;;3.03;2.20;;;;;;;;;;5017066;28;20040;-78
2023/04/16 13:44:05;;;;;;;3.45;1.92;;;;;;;;;;5015929;28;20025;-77
2023/04/16 13:46:31;;;;;;;2.30;1.80;;;;;;;;;;5023314;28;20013;-77
2023/04/16 13:48:57;;;;;;;3.50;2.03;;;;;;;;;;5023664;28;20021;-77
2023/04/16 13:51:26;;;;;;;3.67;2.00;;;;;;;;;;5022903;28;20083;-77
2023/04/16 13:53:54;;;;;;;3.67;2.25;;;;;;;;;;5021190;28;20033;-77
2023/04/16 13:56:20;;;;;;;3.30;1.50;;;;;;;;;;5013814;28;20243;-77
2023/04/16 13:58:46;;;;;;;2.08;1.60;;;;;;;;;;5011963;28;20731;-78
2023/04/16 14:01:12;;;;;;;1.58;1.42;;;;;;;;;;5022746;28;20064;-78
2023/04/16 14:03:39;;;;;;;3.45;1.92;;;;;;;;;;5020950;28;20029;-78
2023/04/16 14:06:05;;;;;;;2.97;2.10;;;;;;;;;;5011385;28;20057;-85
2023/04/16 14:08:31;;;;;;;2.42;1.80;;;;;;;;;;5012421;28;20487;-80
2023/04/16 14:10:58;;;;;;;1.75;1.58;;;;;;;;;;5014527;28;20046;-84
2023/04/16 14:13:24;;;;;;;2.25;1.65;;;;;;;;;;5021716;28;20133;-82
2023/04/16 14:15:52;;;;;;;4.20;2.38;;;;;;;;;;5018051;28;20022;-85
2023/04/16 14:18:18;;;;;;;4.40;1.70;;;;;;;;;;5024856;28;20029;-82
2023/04/16 14:20:47;;;;;;;2.92;1.50;;;;;;;;;;5027388;28;20030;-82
2023/04/16 14:23:13;;;;;;;6.32;1.60;;;;;;;;;;5025882;28;20038;-82
2023/04/16 14:25:39;;;;;;;1.88;1.33;;;;;;;;;;5025193;28;20070;-83
2023/04/16 14:28:05;;;;;;;3.17;1.52;;;;;;;;;;5028104;28;20370;-86
2023/04/16 14:30:31;;;;;;;4.75;1.52;;;;;;;;;;5024576;28;20068;-85
2023/04/16 14:32:57;;;;;;;2.25;1.70;;;;;;;;;;5017196;28;20668;-86
2023/04/16 14:35:23;;;;;;;2.92;1.92;;;;;;;;;;5016928;28;20491;-85
2023/04/16 14:37:49;;;;;;;3.25;1.80;;;;;;;;;;5016893;28;20030;-86
2023/04/16 14:40:15;;;;;;;2.10;1.50;;;;;;;;;;5019871;28;20044;-83